Time;durP1;ratioP1;P1;durP2;ratioP2;P2;SDS_P1;SDS_P2;PMS_P1;PMS_P2;Temp;Humidity;BMP_temperature;BMP_pressure;BME280_temperature;BME280_humidity;BME280_pressure;Samples;Min_cycle;Max_cycle;Signal;HPM_P1;HPM_P2
2022/02/04 00:28:47;;;;;;;16.85;12.93;;;;;;;8.16;100.00;101123.34;4789204;30;20481;-49
2022/02/04 00:33:48;;;;;;;14.43;11.70;;;;;;;8.17;100.00;101121.44;4789079;30;20059;-52
2022/02/04 00:38:47;;;;;;;16.40;13.48;;;;;;;8.16;100.00;101127.97;4788689;30;20400;-52
2022/02/04 00:41:18;;;;;;;15.27;11.95;;;;;;;8.17;100.00;101116.03;4788225;30;20044;-54
2022/02/04 00:43:48;;;;;;;16.08;12.82;;;;;;;8.17;100.00;101124.97;4788979;30;20068;-51
2022/02/04 00:46:22;;;;;;;13.20;11.10;;;;;;;8.17;100.00;101113.31;4788919;30;20148;-51
2022/02/04 00:49:19;;;;;;;13.27;10.52;;;;;;;8.17;100.00;101111.41;4790880;30;20551;-50
2022/02/04 01:27:14;;;;;;;13.25;9.85;;;;;;;8.24;100.00;101087.66;4770321;30;19930;-49
2022/02/04 01:32:34;;;;;;;12.55;8.95;;;;;;;8.21;99.36;101087.34;4717179;30;20052;-49
2022/02/04 01:35:02;;;;;;;13.95;10.38;;;;;;;8.20;99.45;101088.38;4717153;30;20060;-49
2022/02/04 01:37:31;;;;;;;11.18;7.97;;;;;;;8.20;99.78;101091.94;4717047;30;20061;-50
2022/02/04 01:39:58;;;;;;;12.43;9.82;;;;;;;8.20;99.81;101075.66;4713924;30;20050;-50
2022/02/04 01:42:26;;;;;;;11.85;8.82;;;;;;;8.20;99.69;101081.09;4702347;30;20041;-49
2022/02/04 01:44:53;;;;;;;13.00;9.75;;;;;;;8.17;99.62;101081.56;4717005;30;20056;-50
2022/02/04 01:47:22;;;;;;;13.93;9.10;;;;;;;8.18;99.18;101090.50;4717059;30;20060;-49
2022/02/04 01:49:49;;;;;;;13.88;9.65;;;;;;;8.16;99.38;101082.63;4750372;30;20079;-48
2022/02/04 01:52:17;;;;;;;14.38;10.30;;;;;;;8.14;98.31;101086.66;4787097;30;20051;-50
2022/02/04 01:54:44;;;;;;;13.95;10.05;;;;;;;8.11;98.38;101087.97;4787505;30;20104;-49
2022/02/04 01:57:12;;;;;;;16.23;10.88;;;;;;;8.11;98.40;101087.97;4787609;30;20055;-49
2022/02/04 01:59:39;;;;;;;15.13;10.00;;;;;;;8.08;98.35;101089.28;4787594;30;20397;-49
2022/02/04 02:02:08;;;;;;;16.60;9.20;;;;;;;8.13;98.82;101079.56;4786621;30;20079;-49
2022/02/04 02:04:35;;;;;;;13.40;9.02;;;;;;;8.13;98.73;101082.28;4787357;30;20059;-48
2022/02/04 02:07:10;;;;;;;11.55;8.60;;;;;;;8.14;98.27;101075.81;4787366;30;20054;-51
2022/02/04 02:09:54;;;;;;;12.85;9.00;;;;;;;8.14;98.03;101078.53;4816702;29;20417;-50
2022/02/04 02:12:26;;;;;;;11.55;7.43;;;;;;;8.14;98.28;101076.63;4857978;29;20090;-55
2022/02/04 02:15:35;;;;;;;13.93;9.75;;;;;;;8.16;98.69;101079.91;4862246;29;20052;-50
2022/02/04 02:47:42;;;;;;;10.40;6.88;;;;;;;8.26;99.05;101047.50;4861769;29;20046;-50
2022/02/04 02:56:01;;;;;;;10.27;7.28;;;;;;;8.26;98.71;101050.22;4861060;29;20124;-50
2022/02/04 02:58:32;;;;;;;9.52;5.97;;;;;;;8.26;98.53;101043.97;4861729;29;20045;-52
2022/02/04 03:01:04;;;;;;;12.43;7.10;;;;;;;8.23;98.18;101037.16;4861263;29;20049;-50
2022/02/04 03:03:36;;;;;;;13.95;8.63;;;;;;;8.21;98.03;101031.16;4861374;29;20071;-54
2022/02/04 03:06:06;;;;;;;12.20;7.95;;;;;;;8.19;98.67;101029.75;4861046;29;20052;-51
2022/02/04 03:08:33;;;;;;;11.48;7.43;;;;;;;8.19;97.89;101032.47;4861411;29;20053;-49
2022/02/04 03:11:01;;;;;;;12.27;8.15;;;;;;;8.19;97.74;101032.47;4861292;29;20493;-49
2022/02/04 03:13:29;;;;;;;10.05;6.50;;;;;;;8.26;99.44;101022.25;4861357;29;20073;-51
2022/02/04 03:16:00;;;;;;;10.73;7.85;;;;;;;8.20;98.26;101028.66;4860607;29;20045;-55
2022/02/04 03:18:31;;;;;;;11.73;7.95;;;;;;;8.19;98.02;101021.59;4843398;29;20052;-53
2022/02/04 03:21:26;;;;;;;10.98;7.32;;;;;;;8.17;97.90;101029.16;4843582;29;20414;-48
2022/02/04 03:23:53;;;;;;;11.90;7.50;;;;;;;8.21;98.45;101020.28;4842207;29;20054;-47
2022/02/04 03:29:04;;;;;;;12.40;7.78;;;;;;;8.13;97.38;101018.00;4842319;29;20395;-47
2022/02/04 03:31:38;;;;;;;11.90;8.38;;;;;;;8.13;98.24;101009.84;4842241;29;20489;-49
2022/02/04 03:34:09;;;;;;;12.88;7.97;;;;;;;8.09;97.29;101012.22;4842209;29;20106;-49
2022/02/04 03:36:37;;;;;;;12.05;8.20;;;;;;;8.07;97.74;101003.50;4841911;29;20538;-49
2022/02/04 03:39:04;;;;;;;10.40;7.13;;;;;;;8.07;97.18;101002.69;4842220;29;20091;-51
2022/02/04 03:41:32;;;;;;;12.07;7.85;;;;;;;8.06;97.17;101006.47;4842418;29;20073;-48
2022/02/04 03:43:59;;;;;;;12.13;7.70;;;;;;;8.08;97.48;101007.88;4842108;29;20045;-48
2022/02/04 03:46:27;;;;;;;12.05;7.43;;;;;;;8.10;97.37;100997.59;4842122;29;20034;-48
2022/02/04 03:48:55;;;;;;;10.13;6.88;;;;;;;8.15;98.41;100990.59;4842305;29;20050;-49
2022/02/04 03:51:22;;;;;;;9.45;6.63;;;;;;;8.13;98.51;100979.16;4841459;29;20050;-53
2022/02/04 03:53:50;;;;;;;12.50;7.50;;;;;;;8.13;98.08;100979.16;4841543;29;20042;-48
2022/02/04 03:56:19;;;;;;;10.77;7.65;;;;;;;8.07;97.32;100984.50;4841853;29;20057;-52
2022/02/04 03:58:47;;;;;;;10.77;7.65;;;;;;;8.06;97.77;100993.72;4841940;29;20052;-53
2022/02/04 04:01:14;;;;;;;12.18;7.32;;;;;;;8.05;97.49;100992.06;4842148;29;20053;-53
2022/02/04 04:03:43;;;;;;;10.45;6.03;;;;;;;8.09;97.63;100982.38;4841879;29;20045;-52
2022/02/04 04:06:12;;;;;;;10.85;7.00;;;;;;;8.08;97.00;100983.47;4841761;29;20069;-52
2022/02/04 04:08:40;;;;;;;10.52;6.50;;;;;;;8.08;97.17;100980.75;4841821;29;20046;-51
2022/02/04 04:11:07;;;;;;;11.98;7.35;;;;;;;8.10;97.22;100989.47;4842153;29;20053;-51
2022/02/04 04:13:35;;;;;;;10.43;6.00;;;;;;;8.14;97.49;100988.97;4841499;29;20049;-50
2022/02/04 04:16:03;;;;;;;9.50;6.63;;;;;;;8.13;97.84;100985.44;4841814;29;20494;-51
2022/02/04 04:18:30;;;;;;;8.43;5.72;;;;;;;8.13;98.10;100980.00;4860355;29;20050;-53
2022/02/04 04:20:58;;;;;;;8.15;4.90;;;;;;;8.18;99.12;100981.94;4860280;29;20574;-53
2022/02/04 04:23:28;;;;;;;7.50;4.82;;;;;;;8.21;99.69;100981.47;4859645;29;20061;-54
2022/02/04 04:25:56;;;;;;;10.35;6.65;;;;;;;8.16;97.93;100982.22;4860285;29;20046;-54
2022/02/04 04:28:23;;;;;;;8.07;5.05;;;;;;;8.16;98.59;100982.22;4859728;29;20425;-52
2022/02/04 04:30:51;;;;;;;10.13;5.72;;;;;;;8.28;98.97;100982.94;4860363;29;20056;-50
2022/02/04 04:33:18;;;;;;;10.45;6.35;;;;;;;8.18;97.66;100981.94;4860005;29;20037;-50
2022/02/04 04:35:46;;;;;;;10.68;6.32;;;;;;;8.11;96.75;100982.13;4860306;29;20393;-52
2022/02/04 04:38:27;;;;;;;10.05;5.97;;;;;;;8.14;96.94;100984.34;4859815;29;20516;-49
2022/02/04 05:26:01;;;;;;;8.00;4.45;;;;;;;8.21;97.73;100986.91;4784949;30;20072;-48
2022/02/04 05:28:56;;;;;;;;;;;;;;;8.10;95.19;100948.75;4863301;29;20378;-53
2022/02/04 05:30:53;;;;;;;5.72;3.38;;;;;;;8.23;98.12;100949.47;4855653;29;19924;-48
2022/02/04 05:33:21;;;;;;;7.53;3.90;;;;;;;8.22;96.15;100932.34;4862627;29;20101;-48
2022/02/04 05:35:48;;;;;;;4.93;3.25;;;;;;;8.22;97.14;100942.38;4862563;29;20408;-50
2022/02/04 05:38:17;;;;;;;6.38;4.05;;;;;;;8.22;96.96;100929.63;4862609;29;20061;-49
2022/02/04 05:40:47;;;;;;;5.32;3.45;;;;;;;8.18;96.40;100935.81;4862595;29;20513;-53
2022/02/04 05:43:22;;;;;;;5.45;3.28;;;;;;;8.22;97.09;100939.69;4862648;29;20461;-51
2022/02/04 05:45:59;;;;;;;7.07;3.20;;;;;;;8.27;96.95;100937.03;4862259;29;20064;-53
2022/02/04 05:48:28;;;;;;;7.18;3.47;;;;;;;8.22;95.66;100931.53;4862907;29;20396;-50
2022/02/04 05:51:28;;;;;;;5.43;3.10;;;;;;;8.29;98.69;100930.28;4862663;29;20084;-50
2022/02/04 05:59:19;;;;;;;5.97;3.42;;;;;;;8.23;96.39;100922.34;4830663;29;20050;-52
2022/02/04 06:04:30;;;;;;;6.45;3.25;;;;;;;8.21;96.70;100917.16;4862304;29;20049;-52
2022/02/04 06:22:07;;;;;;;6.10;2.92;;;;;;;8.20;96.20;100911.97;4864597;29;20441;-48
2022/02/04 06:23:14;;;;;;;5.93;3.40;;;;;;;8.23;94.78;100916.91;4861692;29;20053;-54
2022/02/04 06:25:43;;;;;;;6.03;3.45;;;;;;;8.35;96.49;100922.22;4861509;29;20120;-53
2022/02/04 06:28:12;;;;;;;6.15;3.58;;;;;;;8.29;95.47;100919.41;4861952;29;20405;-48
2022/02/04 06:30:40;;;;;;;6.50;3.70;;;;;;;8.20;95.31;100920.94;4861913;29;20523;-47
2022/02/04 06:33:08;;;;;;;6.45;3.72;;;;;;;8.09;95.61;100922.66;4862157;29;20054;-54
2022/02/04 06:35:35;;;;;;;10.95;3.90;;;;;;;8.07;95.78;100908.53;4861440;29;20044;-48
2022/02/04 06:38:04;;;;;;;3.83;2.92;;;;;;;8.13;96.75;100922.16;4845336;29;20497;-47
2022/02/04 06:40:31;;;;;;;4.90;3.38;;;;;;;8.15;96.58;100925.47;4861883;29;20053;-50
2022/02/04 06:42:59;;;;;;;4.47;2.10;;;;;;;8.35;100.00;100914.91;4861276;29;20045;-51
2022/02/04 06:45:26;;;;;;;5.70;2.50;;;;;;;8.50;100.00;100915.13;4861688;29;20433;-48
2022/02/04 06:47:54;;;;;;;6.07;3.60;;;;;;;8.42;97.20;100925.59;4861852;29;20053;-49
2022/02/04 06:50:22;;;;;;;4.35;2.58;;;;;;;8.56;99.36;100915.19;4861761;29;20037;-49
2022/02/04 06:52:53;;;;;;;4.07;2.00;;;;;;;8.78;100.00;100912.47;4861041;29;20049;-52
2022/02/04 06:55:22;;;;;;;5.63;2.60;;;;;;;8.66;98.48;100918.88;4542873;29;10001275;-46
2022/02/04 06:57:51;;;;;;;3.05;2.45;;;;;;;8.73;99.23;100921.38;4524502;29;10000155;-49
2022/02/04 07:00:18;;;;;;;4.38;2.85;;;;;;;8.65;98.88;100914.50;4859909;29;20062;-47
2022/02/04 07:02:47;;;;;;;4.85;3.08;;;;;;;8.67;99.35;100911.53;4859206;29;20061;-50
2022/02/04 07:05:15;;;;;;;3.90;2.80;;;;;;;8.72;98.84;100908.88;4859552;29;20045;-52
2022/02/04 07:07:54;;;;;;;8.85;3.00;;;;;;;8.66;98.17;100908.00;4859675;29;20053;-48
2022/02/04 07:10:37;;;;;;;6.78;2.80;;;;;;;8.48;98.70;100914.56;4859605;29;20412;-54
2022/02/04 07:15:59;;;;;;;2.22;1.85;;;;;;;8.89;99.78;100909.59;4859029;29;20053;-50
2022/02/04 07:21:06;;;;;;;5.65;2.92;;;;;;;8.82;99.58;100914.41;4858987;29;20065;-52
2022/02/04 07:23:38;;;;;;;5.15;3.20;;;;;;;8.60;99.95;100911.72;4858752;29;20511;-50
2022/02/04 07:26:06;;;;;;;5.65;2.70;;;;;;;8.58;100.00;100908.44;4858656;29;20109;-49
2022/02/04 07:28:33;;;;;;;3.17;2.47;;;;;;;8.69;100.00;100906.66;4859045;29;20044;-50
2022/02/04 07:31:04;;;;;;;4.75;3.13;;;;;;;8.87;100.00;100897.34;4861044;29;20390;-48
2022/02/04 07:41:46;;;;;;;6.35;2.95;;;;;;;8.42;100.00;100883.00;4845374;29;20384;-54
2022/02/04 07:44:16;;;;;;;4.70;2.85;;;;;;;8.43;100.00;100878.38;4860707;29;20068;-49
2022/02/04 07:46:44;;;;;;;3.20;2.85;;;;;;;8.35;100.00;100876.91;4860960;29;20065;-49
2022/02/04 07:49:12;;;;;;;2.97;2.42;;;;;;;8.29;100.00;100875.97;4860592;29;20078;-51
2022/02/04 07:51:40;;;;;;;5.68;2.88;;;;;;;8.32;100.00;100872.78;4860344;29;20377;-48
2022/02/04 07:54:08;;;;;;;4.53;2.90;;;;;;;8.35;100.00;100866.03;4860238;29;20499;-50
2022/02/04 07:56:36;;;;;;;3.20;2.75;;;;;;;8.35;100.00;100860.59;4859155;29;20042;-48
2022/02/04 07:59:08;;;;;;;2.47;2.28;;;;;;;8.33;100.00;100868.19;4860340;29;20501;-47
2022/02/04 08:01:36;;;;;;;5.25;3.05;;;;;;;8.37;100.00;100866.59;4859967;29;20053;-49
2022/02/04 08:04:15;;;;;;;5.53;2.90;;;;;;;8.35;100.00;100857.88;4860114;29;20041;-47
2022/02/04 08:06:49;;;;;;;3.17;2.70;;;;;;;8.36;100.00;100851.38;4859585;29;20515;-51
2022/02/04 08:20:07;;;;;;;4.15;2.58;;;;;;;9.06;100.00;100848.91;4821447;29;20050;-47
2022/02/04 08:22:51;;;;;;;3.83;2.72;;;;;;;9.03;100.00;100860.31;4819188;29;20051;-48
2022/02/04 08:28:43;;;;;;;;;;;;;;;8.59;100.00;100854.94;4804136;29;20043;-49
2022/02/04 08:39:16;;;;;;;6.20;4.30;;;;;;;8.30;100.00;100852.41;4785136;30;20400;-46
2022/02/04 08:55:04;;;;;;;;;;;;;;;8.60;100.00;100846.53;4864133;29;20044;-47
2022/02/04 08:57:45;;;;;;;12.43;5.15;;;;;;;8.77;100.00;100835.59;4863359;29;20288;-48
2022/02/04 09:00:29;;;;;;;12.00;4.13;;;;;;;8.59;100.00;100838.66;4863679;29;20046;-50
2022/02/04 09:03:02;;;;;;;15.40;5.72;;;;;;;8.99;100.00;100837.44;4863151;29;20056;-49
2022/02/04 09:05:40;;;;;;;11.30;4.53;;;;;;;8.89;100.00;100833.53;4863746;29;20053;-48
2022/02/04 09:10:37;;;;;;;15.63;5.35;;;;;;;8.99;100.00;100829.28;4863226;29;20038;-48
2022/02/04 09:23:28;;;;;;;8.13;3.70;;;;;;;9.04;100.00;100818.44;4847921;29;20054;-50
2022/02/04 09:25:57;;;;;;;11.85;4.28;;;;;;;8.98;100.00;100814.06;4830921;29;20055;-47
2022/02/04 09:28:26;;;;;;;8.30;3.97;;;;;;;9.05;100.00;100809.22;4863532;29;20041;-46
2022/02/04 09:30:53;;;;;;;6.05;3.75;;;;;;;8.94;100.00;100803.69;4862984;29;20049;-48
2022/02/04 09:33:21;;;;;;;10.57;3.95;;;;;;;8.86;100.00;100796.00;4863120;29;20056;-48
2022/02/04 09:35:48;;;;;;;7.10;3.80;;;;;;;8.69;100.00;100795.31;4862477;29;20073;-52
2022/02/04 09:38:16;;;;;;;7.20;3.70;;;;;;;8.55;100.00;100788.63;4862791;29;20041;-52
2022/02/04 09:40:46;;;;;;;5.50;3.75;;;;;;;8.46;100.00;100775.50;4862655;29;20060;-49
2022/02/04 09:43:14;;;;;;;4.97;3.55;;;;;;;8.67;100.00;100781.16;4863138;29;20053;-50
2022/02/04 09:45:42;;;;;;;6.18;3.65;;;;;;;8.58;100.00;100772.63;4862823;29;20185;-50
2022/02/04 09:48:12;;;;;;;9.32;3.50;;;;;;;8.60;100.00;100769.66;4862777;29;20518;-50
2022/02/04 09:50:46;;;;;;;9.30;3.53;;;;;;;8.85;100.00;100771.81;4862244;29;20060;-47
2022/02/04 10:20:54;;;;;;;6.47;3.60;;;;;;;9.00;100.00;100754.84;4778136;30;20061;-52
2022/02/04 10:23:22;;;;;;;6.38;3.20;;;;;;;8.87;100.00;100747.91;4787056;30;20174;-50
2022/02/04 10:25:49;;;;;;;5.30;3.10;;;;;;;9.04;100.00;100750.50;4787124;30;20457;-52
2022/02/04 10:28:28;;;;;;;7.03;3.63;;;;;;;8.87;100.00;100745.19;4786813;30;20051;-51
2022/02/04 10:31:04;;;;;;;4.85;3.35;;;;;;;8.58;100.00;100744.66;4786610;30;20400;-50
2022/02/04 10:33:33;;;;;;;5.05;3.60;;;;;;;8.46;100.00;100736.66;4835053;29;20050;-54
2022/02/04 10:36:05;;;;;;;5.57;3.60;;;;;;;8.42;100.00;100721.97;4860487;29;20072;-49
2022/02/04 10:38:44;;;;;;;5.57;3.60;;;;;;;8.43;100.00;100721.72;4862022;29;20080;-46
2022/02/04 10:41:26;;;;;;;7.15;3.47;;;;;;;8.63;100.00;100703.97;4861270;29;20054;-50
2022/02/04 10:44:18;;;;;;;5.88;3.75;;;;;;;8.83;100.00;100696.00;4861602;29;20049;-50
2022/02/04 10:46:58;;;;;;;5.10;2.90;;;;;;;9.24;100.00;100707.19;4861450;29;20137;-49
2022/02/04 10:49:52;;;;;;;6.18;3.20;;;;;;;9.21;100.00;100702.25;4861680;29;20050;-47
2022/02/04 11:00:54;;;;;;;6.32;3.28;;;;;;;9.03;100.00;100686.38;4804610;29;20066;-49
2022/02/04 11:03:23;;;;;;;3.78;2.80;;;;;;;9.25;100.00;100675.38;4803625;29;20458;-53
2022/02/04 11:06:08;;;;;;;6.97;2.70;;;;;;;9.16;100.00;100680.47;4804043;29;20431;-48
2022/02/04 11:09:06;;;;;;;6.20;2.95;;;;;;;9.28;100.00;100672.13;4804227;29;20063;-51
2022/02/04 11:43:45;;;;;;;3.50;3.08;;;;;;;8.81;98.87;100597.66;4717825;30;20091;-46
2022/02/04 11:52:11;;;;;;;21.17;12.57;;;;;;;8.83;98.94;100562.88;4744925;30;20412;-51
2022/02/04 11:57:04;;;;;;;122.28;66.82;;;;;;;9.37;100.00;100537.31;4767770;30;20059;-53
2022/02/04 11:59:36;;;;;;;7.55;3.80;;;;;;;9.16;97.35;100541.84;4767569;30;20056;-49
2022/02/04 12:07:44;;;;;;;17.80;11.18;;;;;;;9.15;97.94;100537.50;4860147;29;20046;-51
2022/02/04 12:10:17;;;;;;;212.13;101.70;;;;;;;9.35;100.00;100528.59;4859568;29;20052;-57
2022/02/04 12:12:55;;;;;;;80.57;44.45;;;;;;;9.75;100.00;100517.00;4859681;29;20076;-57
2022/02/04 12:15:29;;;;;;;182.02;97.43;;;;;;;10.15;100.00;100507.22;4858852;29;20052;-53
2022/02/04 12:18:00;;;;;;;102.03;55.92;;;;;;;10.27;99.00;100514.28;4858902;29;20049;-51
2022/02/04 12:23:29;;;;;;;70.07;39.03;;;;;;;9.77;100.00;100498.50;4857054;29;20049;-49
2022/02/04 12:25:58;;;;;;;19.10;10.68;;;;;;;9.77;95.07;100484.91;4859279;29;20505;-47
2022/02/04 12:28:38;;;;;;;131.88;70.82;;;;;;;10.05;100.00;100481.91;4826523;29;20129;-52
2022/02/04 12:31:17;;;;;;;129.43;58.35;;;;;;;10.29;100.00;100463.13;4857717;29;20038;-52
2022/02/04 12:33:49;;;;;;;85.32;48.17;;;;;;;10.20;94.58;100465.56;4860192;29;20401;-50
2022/02/04 12:36:26;;;;;;;146.70;78.53;;;;;;;10.52;97.07;100462.53;4859953;29;20119;-49
2022/02/04 12:39:01;;;;;;;93.55;50.88;;;;;;;10.28;93.77;100461.47;4859752;29;20053;-49
2022/02/04 12:41:33;;;;;;;75.57;39.17;;;;;;;10.12;93.46;100458.75;4859823;29;20080;-48
2022/02/04 12:44:06;;;;;;;6.55;3.95;;;;;;;9.81;88.40;100455.22;4860044;29;20049;-52
2022/02/04 12:46:34;;;;;;;3.90;2.90;;;;;;;9.31;87.75;100460.34;4843963;29;20049;-49
2022/02/04 12:49:07;;;;;;;21.05;11.35;;;;;;;9.19;91.65;100443.47;4842607;29;20049;-48
2022/02/04 12:52:03;;;;;;;21.00;10.60;;;;;;;9.26;92.60;100437.75;4859750;29;20461;-50
2022/02/04 13:08:43;;;;;;;46.45;24.35;;;;;;;10.73;87.63;100408.00;4859491;29;20080;-49
2022/02/04 13:11:15;;;;;;;81.47;39.17;;;;;;;11.27;92.74;100404.41;4841443;29;20054;-50
2022/02/04 13:13:50;;;;;;;57.30;28.27;;;;;;;10.70;89.05;100403.88;4841416;29;20413;-49
2022/02/04 13:16:22;;;;;;;66.28;31.60;;;;;;;10.99;94.77;100398.59;4179419;29;10000011;-48
2022/02/04 13:18:51;;;;;;;71.78;36.30;;;;;;;10.84;92.22;100385.84;4857504;29;20084;-54
2022/02/04 13:21:19;;;;;;;20.33;11.52;;;;;;;10.31;86.91;100376.53;4858372;29;20323;-50
2022/02/04 13:23:47;;;;;;;47.97;25.13;;;;;;;10.20;92.06;100378.47;4841954;29;20470;-49
2022/02/04 13:26:14;;;;;;;62.67;30.85;;;;;;;10.56;94.44;100376.44;4841470;29;20364;-52
2022/02/04 13:28:44;;;;;;;16.75;9.50;;;;;;;10.24;85.34;100369.44;4861056;29;20048;-51
2022/02/04 13:31:13;;;;;;;11.93;4.57;;;;;;;9.93;85.17;100368.72;4861911;29;20454;-50
2022/02/04 13:33:42;;;;;;;44.97;22.58;;;;;;;10.71;92.83;100366.59;4844556;29;20092;-49
2022/02/04 13:39:09;;;;;;;49.43;19.23;;;;;;;10.32;94.65;100354.47;4843975;29;20042;-48
2022/02/04 13:52:02;;;;;;;37.90;19.08;;;;;;;10.31;93.57;100347.38;4861084;29;20049;-48
2022/02/04 13:54:56;;;;;;;32.30;16.88;;;;;;;10.34;91.25;100341.41;4860894;29;20420;-49
2022/02/04 13:57:34;;;;;;;13.88;6.10;;;;;;;9.89;91.54;100350.50;4860875;29;20044;-48
2022/02/04 14:00:45;;;;;;;11.10;6.07;;;;;;;9.76;90.04;100347.22;4860121;29;20084;-52
2022/02/04 14:03:41;;;;;;;11.00;6.72;;;;;;;9.66;95.24;100338.25;4860524;29;20500;-51
2022/02/04 14:06:20;;;;;;;14.52;7.07;;;;;;;9.54;91.54;100339.34;4821591;29;20074;-52
2022/02/04 14:09:00;;;;;;;8.68;4.35;;;;;;;9.16;92.17;100335.25;4821541;29;20149;-52
2022/02/04 14:11:39;;;;;;;9.32;5.05;;;;;;;8.94;94.05;100325.44;4820993;29;20049;-52
2022/02/04 14:14:10;;;;;;;10.50;5.53;;;;;;;8.89;95.08;100328.16;4821226;29;20054;-53
2022/02/04 14:16:38;;;;;;;5.55;3.90;;;;;;;8.79;95.68;100317.28;4821094;29;20137;-52
2022/02/04 14:19:06;;;;;;;8.43;4.55;;;;;;;8.86;95.78;100317.84;4821450;29;20055;-53
2022/02/04 14:21:35;;;;;;;8.20;4.65;;;;;;;9.06;95.98;100313.53;4805386;29;20058;-52
2022/02/04 14:24:09;;;;;;;16.00;7.13;;;;;;;9.06;97.36;100318.97;4821431;29;20062;-51
2022/02/04 14:26:43;;;;;;;20.92;9.88;;;;;;;9.22;100.00;100315.16;4791348;29;20050;-51
2022/02/04 14:36:51;;;;;;;23.73;10.40;;;;;;;9.63;98.75;100315.16;4821126;29;20046;-50
2022/02/04 14:58:57;;;;;;;10.23;4.95;;;;;;;9.11;96.82;100314.34;4766395;30;20115;-49
2022/02/04 15:01:36;;;;;;;9.68;4.50;;;;;;;8.98;97.32;100327.66;4766391;30;20063;-50
2022/02/04 15:04:12;;;;;;;11.00;4.50;;;;;;;8.64;99.15;100404.16;4766184;30;20070;-54
2022/02/04 15:06:41;;;;;;;4.97;2.95;;;;;;;7.71;92.23;100443.44;4766687;30;20066;-50
2022/02/04 15:09:11;;;;;;;3.90;1.45;;;;;;;7.12;92.75;100444.22;4766575;30;20043;-51
2022/02/04 15:11:42;;;;;;;3.53;1.40;;;;;;;6.67;92.77;100496.75;4766326;30;20499;-49
2022/02/04 15:14:15;;;;;;;2.33;1.40;;;;;;;6.44;94.74;100494.25;4841684;29;20062;-49
2022/02/04 15:16:44;;;;;;;1.45;0.88;;;;;;;6.34;93.87;100506.56;4859198;29;20049;-49
2022/02/04 15:19:11;;;;;;;3.28;1.67;;;;;;;6.25;94.98;100521.56;4859498;29;20072;-48
2022/02/04 15:21:43;;;;;;;1.38;1.10;;;;;;;6.15;93.59;100543.06;4859494;29;20057;-51
2022/02/04 15:24:11;;;;;;;0.88;0.88;;;;;;;6.06;93.46;100547.22;4858375;29;20060;-49
2022/02/04 15:26:39;;;;;;;2.05;1.23;;;;;;;5.98;92.98;100562.78;4859542;29;20041;-49
2022/02/04 15:29:10;;;;;;;1.48;0.95;;;;;;;5.84;92.46;100574.94;4859297;29;20076;-49
2022/02/04 15:31:59;;;;;;;0.95;0.75;;;;;;;5.72;92.90;100574.16;4859411;29;20045;-47
2022/02/04 15:34:27;;;;;;;2.50;0.95;;;;;;;5.89;92.96;100582.31;4841680;29;20044;-49
2022/02/04 15:36:54;;;;;;;1.70;0.80;;;;;;;5.86;93.04;100594.44;4842968;29;20065;-51
2022/02/04 15:39:26;;;;;;;1.15;0.90;;;;;;;5.87;92.91;100596.09;4858676;29;20041;-49
2022/02/04 15:41:58;;;;;;;1.30;1.13;;;;;;;5.92;93.22;100600.78;4859063;29;20130;-47
2022/02/04 15:45:14;;;;;;;3.67;2.05;;;;;;;6.02;93.64;100611.81;4858297;29;20042;-49
2022/02/04 15:51:36;;;;;;;2.80;1.42;;;;;;;6.02;93.78;100635.34;4810731;29;20593;-50
2022/02/04 15:53:34;;;;;;;1.23;1.00;;;;;;;5.76;93.38;100643.72;4804935;29;20077;-50
2022/02/04 16:04:28;;;;;;;;;;;;;;;5.94;92.79;100698.72;4783629;30;20059;-49
2022/02/04 16:06:55;;;;;;;2.35;1.88;;;;;;;5.90;93.59;100716.47;4783156;30;19929;-50
2022/02/04 16:09:24;;;;;;;3.20;2.17;;;;;;;5.88;93.66;100719.41;4783581;30;20057;-50
2022/02/04 16:12:06;;;;;;;1.65;1.40;;;;;;;5.92;93.69;100731.41;4783929;30;20058;-52
2022/02/04 16:17:14;;;;;;;3.60;1.42;;;;;;;5.90;93.95;100749.75;4782699;30;20059;-52
2022/02/04 16:19:46;;;;;;;2.85;1.58;;;;;;;5.89;94.03;100758.94;4783381;30;20055;-50
2022/02/04 16:30:41;;;;;;;2.92;1.65;;;;;;;5.86;96.78;100796.41;4730095;30;20501;-48
2022/02/04 16:33:09;;;;;;;2.10;1.65;;;;;;;5.91;95.62;100805.44;4747615;30;20135;-49
2022/02/04 16:35:37;;;;;;;3.53;1.67;;;;;;;5.90;95.79;100809.22;4782243;30;20465;-48
2022/02/04 16:38:05;;;;;;;1.98;1.60;;;;;;;5.89;95.26;100818.41;4782880;30;20051;-46
2022/02/04 16:40:41;;;;;;;3.85;1.77;;;;;;;5.81;95.29;100817.94;4768235;30;20069;-50
2022/02/04 16:43:09;;;;;;;2.88;1.83;;;;;;;5.79;96.00;100834.38;4782749;30;20043;-50
2022/02/04 16:45:36;;;;;;;3.55;1.80;;;;;;;5.79;95.82;100849.78;4783321;30;20583;-51
2022/02/04 16:48:04;;;;;;;3.15;1.90;;;;;;;5.78;95.73;100858.97;4783809;30;20047;-50
2022/02/04 16:50:32;;;;;;;2.13;1.50;;;;;;;5.70;95.18;100865.53;4783426;30;20066;-52
2022/02/04 16:53:00;;;;;;;2.85;1.70;;;;;;;5.69;95.32;100882.81;4783060;30;20043;-48
2022/02/04 16:55:27;;;;;;;3.38;1.65;;;;;;;5.54;94.52;100875.16;4782557;30;20055;-48
2022/02/04 16:57:55;;;;;;;5.35;2.15;;;;;;;5.55;95.46;100891.13;4783193;30;20568;-49
2022/02/04 17:00:25;;;;;;;5.07;1.80;;;;;;;5.59;94.48;100899.63;4783012;30;20052;-50
2022/02/04 17:02:59;;;;;;;5.05;2.28;;;;;;;5.57;94.84;100903.59;4784054;29;20424;-50
2022/02/04 17:05:36;;;;;;;6.03;1.90;;;;;;;5.54;94.19;100918.41;4855627;29;20098;-50
2022/02/04 17:08:09;;;;;;;3.78;1.80;;;;;;;5.51;93.30;100927.81;4861512;29;20577;-51
2022/02/04 17:10:41;;;;;;;4.18;1.80;;;;;;;5.50;92.55;100939.66;4829766;29;20424;-54
2022/02/04 17:13:10;;;;;;;8.13;2.35;;;;;;;5.52;91.92;100951.06;4845129;29;20050;-53
2022/02/04 17:15:39;;;;;;;5.15;1.92;;;;;;;5.53;90.64;100958.13;4860971;29;20041;-51
2022/02/04 17:18:08;;;;;;;4.85;2.00;;;;;;;5.59;90.76;100959.06;4861481;29;20061;-54
2022/02/04 17:20:36;;;;;;;4.47;1.80;;;;;;;5.62;90.63;100968.59;4863087;29;20050;-50
2022/02/04 17:23:08;;;;;;;6.60;2.25;;;;;;;5.62;90.32;100982.13;4862812;29;20054;-51
2022/02/04 17:25:38;;;;;;;5.35;2.10;;;;;;;5.65;90.90;100984.34;4862625;29;20404;-48
2022/02/04 17:28:06;;;;;;;7.10;2.25;;;;;;;5.58;91.05;100994.44;4861515;29;20061;-54
2022/02/04 17:30:33;;;;;;;7.00;2.50;;;;;;;5.60;91.67;100993.16;4861268;29;20053;-50
2022/02/04 17:33:02;;;;;;;6.68;2.38;;;;;;;5.55;90.42;101001.13;4861391;29;20056;-49
2022/02/04 17:35:29;;;;;;;9.52;2.85;;;;;;;5.48;90.75;101011.22;4829067;29;20045;-46
2022/02/04 17:38:01;;;;;;;7.35;2.47;;;;;;;5.49;91.62;101012.88;4860893;29;20072;-49
2022/02/04 17:40:29;;;;;;;7.30;2.20;;;;;;;5.48;91.57;101011.22;4844551;29;20542;-51
2022/02/04 17:42:59;;;;;;;6.53;2.45;;;;;;;5.52;91.68;101012.41;4860958;29;20489;-47
2022/02/04 17:45:27;;;;;;;4.30;2.05;;;;;;;5.55;91.49;101018.16;4860463;29;20394;-49
2022/02/04 17:48:19;;;;;;;10.18;2.50;;;;;;;5.55;91.10;101018.16;4861154;29;20052;-47
2022/02/04 17:50:52;;;;;;;7.03;2.35;;;;;;;5.55;91.11;101026.25;4861036;29;20042;-47
2022/02/04 17:53:27;;;;;;;6.90;2.38;;;;;;;5.57;91.42;101036.88;4860862;29;20053;-49
2022/02/04 17:56:00;;;;;;;6.20;2.20;;;;;;;5.61;91.02;101050.75;4860408;29;20044;-51
2022/02/04 18:06:12;;;;;;;8.02;2.75;;;;;;;5.70;90.33;101068.28;4860543;29;20699;-53
2022/02/04 18:08:39;;;;;;;5.00;2.40;;;;;;;5.64;90.18;101074.63;4860768;29;20053;-50
2022/02/04 18:11:07;;;;;;;6.85;2.53;;;;;;;5.63;89.88;101075.66;4860801;29;20052;-49
2022/02/04 18:13:34;;;;;;;7.32;2.47;;;;;;;5.62;89.45;101082.13;4842729;29;20046;-51
2022/02/04 18:16:02;;;;;;;8.48;3.33;;;;;;;5.61;89.67;101096.72;4843573;29;20118;-52
2022/02/04 18:18:30;;;;;;;9.50;3.58;;;;;;;5.63;89.95;101091.88;4860262;29;20058;-49
2022/02/04 18:21:01;;;;;;;8.90;3.25;;;;;;;5.66;89.37;101094.97;4860650;29;20038;-51
2022/02/04 18:23:29;;;;;;;10.85;3.58;;;;;;;5.68;89.51;101098.25;4860994;29;20056;-48
2022/02/04 18:25:57;;;;;;;12.63;3.70;;;;;;;5.70;89.55;101092.59;4860417;29;20052;-50
2022/02/04 18:28:27;;;;;;;12.55;4.63;;;;;;;5.71;89.23;101102.38;4860189;29;20136;-43
2022/02/04 18:30:55;;;;;;;7.57;3.10;;;;;;;5.63;89.08;101105.38;4860458;29;20075;-51
2022/02/04 18:33:23;;;;;;;12.30;3.08;;;;;;;5.59;89.32;101104.22;4860849;29;20049;-55
2022/02/04 18:35:57;;;;;;;9.15;3.40;;;;;;;5.59;89.09;101109.63;4828339;29;20049;-52